Time;durP1;ratioP1;P1;durP2;ratioP2;P2;SDS_P1;SDS_P2;PMS_P1;PMS_P2;Temp;Humidity;BMP_temperature;BMP_pressure;BME280_temperature;BME280_humidity;BME280_pressure;Samples;Min_cycle;Max_cycle;Signal;HPM_P1;HPM_P2
2023/09/28 00:05:56;;;;;;;9.93;3.58;;;;;;;17.38;54.34;97997.75;10479525;28;20064;-71
2023/09/28 00:11:17;;;;;;;9.70;3.30;;;;;;;17.35;54.67;97995.47;10469810;28;20438;-72
2023/09/28 00:16:40;;;;;;;12.88;3.30;;;;;;;17.28;55.06;97993.75;10483410;28;20036;-72
2023/09/28 00:22:00;;;;;;;7.97;3.25;;;;;;;17.25;55.20;97984.44;10483638;28;20120;-72
2023/09/28 00:27:21;;;;;;;11.88;3.17;;;;;;;17.20;54.97;97988.47;10483177;28;20071;-72
2023/09/28 00:32:43;;;;;;;7.53;3.47;;;;;;;17.08;55.35;97994.28;10482833;28;20163;-72
2023/09/28 00:38:05;;;;;;;9.23;3.50;;;;;;;16.92;55.47;97998.44;10497743;28;20143;-72
2023/09/28 00:43:27;;;;;;;9.55;3.55;;;;;;;16.78;55.73;97993.56;10483246;28;20055;-72
2023/09/28 00:48:57;;;;;;;8.32;3.20;;;;;;;16.71;56.02;97991.84;10469033;28;20138;-72
2023/09/28 00:54:20;;;;;;;7.18;3.10;;;;;;;16.53;56.23;97990.94;10468591;28;20108;-72
2023/09/28 00:59:40;;;;;;;8.27;3.78;;;;;;;16.38;56.31;97992.34;10468880;28;20061;-73
2023/09/28 01:05:04;;;;;;;9.68;3.42;;;;;;;16.23;56.66;97985.28;10468702;28;20048;-72
2023/09/28 01:10:25;;;;;;;;;;;;;;;15.98;57.95;97983.34;10469093;28;20108;-72
2023/09/28 01:15:46;;;;;;;8.02;3.47;;;;;;;15.89;57.50;97986.38;10468089;28;19955;-72
2023/09/28 01:21:10;;;;;;;7.20;3.22;;;;;;;15.85;57.40;97983.38;10482154;28;20111;-71
2023/09/28 01:26:31;;;;;;;10.50;3.53;;;;;;;15.76;58.00;97981.50;10496914;28;20116;-71
2023/09/28 01:31:52;;;;;;;6.30;3.30;;;;;;;15.70;58.12;97987.53;10481601;28;20170;-72
2023/09/28 01:37:14;;;;;;;7.00;3.35;;;;;;;15.62;58.18;97981.47;10496733;28;20116;-71
2023/09/28 01:42:35;;;;;;;8.93;3.50;;;;;;;15.54;58.71;97981.03;10467549;28;20064;-71
2023/09/28 01:47:55;;;;;;;7.10;3.70;;;;;;;15.41;59.09;97979.69;10497240;28;20037;-71
2023/09/28 01:53:16;;;;;;;8.20;3.30;;;;;;;15.35;59.04;97993.44;10475152;28;20147;-72
2023/09/28 01:58:36;;;;;;;8.02;3.42;;;;;;;15.23;59.37;97992.78;10488819;28;20509;-71
2023/09/28 02:03:57;;;;;;;9.07;3.90;;;;;;;15.08;59.58;97985.69;10474547;28;20079;-71
2023/09/28 02:09:18;;;;;;;5.15;3.35;;;;;;;14.91;60.02;97981.25;10474532;28;20064;-71
2023/09/28 02:14:39;;;;;;;6.60;3.35;;;;;;;14.83;60.46;97992.06;10474294;28;20068;-71
2023/09/28 02:20:01;;;;;;;6.45;3.55;;;;;;;14.74;60.61;97992.97;10488265;28;20134;-73
2023/09/28 02:25:24;;;;;;;8.85;3.90;;;;;;;14.69;61.04;97999.72;10487915;28;20060;-71
2023/09/28 02:30:45;;;;;;;10.88;3.78;;;;;;;14.63;61.33;97993.75;10473948;28;20522;-72
2023/09/28 02:36:06;;;;;;;7.47;3.95;;;;;;;14.53;61.45;97991.84;10473367;28;20441;-72
2023/09/28 02:41:28;;;;;;;8.82;3.80;;;;;;;14.48;61.32;98004.19;10459799;28;20064;-72
2023/09/28 02:46:50;;;;;;;10.30;4.18;;;;;;;14.35;62.19;97999.19;10472950;28;20111;-72
2023/09/28 02:52:11;;;;;;;8.65;4.57;;;;;;;14.28;62.66;97997.38;10473393;28;20111;-73
2023/09/28 02:57:31;;;;;;;12.15;4.30;;;;;;;14.23;62.72;97987.28;10472738;28;20032;-72
2023/09/28 03:02:56;;;;;;;12.25;4.03;;;;;;;14.22;63.28;97989.38;10472069;28;20072;-72
2023/09/28 03:08:17;;;;;;;11.30;5.15;;;;;;;14.22;63.16;97988.63;10459349;28;20040;-72
2023/09/28 03:13:39;;;;;;;10.55;5.05;;;;;;;14.17;63.42;97986.94;10486313;28;20509;-71
2023/09/28 03:19:00;;;;;;;13.23;5.00;;;;;;;14.04;63.83;97996.75;10458258;28;20068;-72
2023/09/28 03:24:21;;;;;;;10.57;4.53;;;;;;;14.01;64.27;97995.16;10471468;28;20120;-72
2023/09/28 03:29:42;;;;;;;7.50;4.63;;;;;;;14.01;64.41;97998.69;10485503;28;20067;-72
2023/09/28 03:35:10;;;;;;;9.80;5.03;;;;;;;13.96;65.02;98004.69;10471858;28;20394;-71
2023/09/28 03:40:34;;;;;;;13.45;5.90;;;;;;;14.03;65.35;98003.69;10485422;28;20426;-72
2023/09/28 03:45:55;;;;;;;9.38;4.97;;;;;;;14.08;65.54;97999.03;10485398;28;20119;-71
2023/09/28 03:51:17;;;;;;;10.07;6.10;;;;;;;14.12;65.64;98010.50;10471027;28;20119;-71
2023/09/28 03:56:37;;;;;;;9.60;5.90;;;;;;;14.07;65.78;98017.22;10470661;28;20059;-71
2023/09/28 04:01:58;;;;;;;14.52;7.15;;;;;;;14.06;66.44;98015.75;10470431;28;20041;-71
2023/09/28 04:07:19;;;;;;;12.43;6.25;;;;;;;14.03;66.37;98018.47;10483863;28;20040;-71
2023/09/28 04:12:40;;;;;;;13.80;5.82;;;;;;;14.01;66.54;98023.97;10482954;28;20064;-70
2023/09/28 04:18:01;;;;;;;10.45;5.22;;;;;;;13.96;66.72;98024.31;10483462;28;20056;-72
2023/09/28 04:23:21;;;;;;;9.80;5.65;;;;;;;13.98;66.86;98033.59;10483580;28;20382;-72
2023/09/28 04:28:42;;;;;;;11.13;4.90;;;;;;;13.90;66.96;98027.53;10483289;28;20116;-71
2023/09/28 04:34:03;;;;;;;9.75;5.63;;;;;;;13.88;67.08;98032.25;10483196;28;20116;-72
2023/09/28 04:39:24;;;;;;;11.07;6.38;;;;;;;13.77;67.62;98024.59;10482960;28;20040;-72
2023/09/28 04:44:45;;;;;;;11.07;5.38;;;;;;;13.64;67.81;98035.09;10469156;28;20048;-73
2023/09/28 04:50:06;;;;;;;14.10;6.00;;;;;;;13.64;68.50;98045.59;10469268;28;20032;-72
2023/09/28 04:55:28;;;;;;;10.65;5.00;;;;;;;13.53;68.46;98030.22;10482772;28;20067;-72
2023/09/28 05:00:49;;;;;;;8.10;5.68;;;;;;;13.52;68.97;98039.97;10469644;28;20067;-72
2023/09/28 05:06:10;;;;;;;8.05;5.18;;;;;;;13.68;68.93;98034.59;10497940;28;20044;-72
2023/09/28 05:11:31;;;;;;;8.77;5.03;;;;;;;14.04;69.27;98033.22;10482423;28;20060;-72
2023/09/28 05:16:53;;;;;;;9.32;5.47;;;;;;;14.51;69.14;98036.66;10482273;28;20065;-71
2023/09/28 05:22:15;;;;;;;9.90;5.07;;;;;;;15.29;68.95;98035.28;10468993;28;20060;-70
2023/09/28 05:27:36;;;;;;;9.32;4.97;;;;;;;16.15;69.03;98034.84;10476866;28;20043;-72
2023/09/28 05:32:57;;;;;;;9.65;4.90;;;;;;;19.19;68.19;98041.28;10461931;28;20115;-71
2023/09/28 05:38:18;;;;;;;9.00;4.80;;;;;;;23.93;60.72;98046.66;10504667;28;20067;-72
2023/09/28 05:43:39;;;;;;;7.45;4.60;;;;;;;27.80;53.86;98044.94;10475111;28;20147;-72
2023/09/28 05:48:59;;;;;;;8.00;4.20;;;;;;;31.00;47.13;98054.31;10475199;28;20036;-73
2023/09/28 05:54:20;;;;;;;9.23;4.00;;;;;;;33.31;40.74;98058.50;10503814;28;20469;-73
2023/09/28 05:59:41;;;;;;;5.20;3.53;;;;;;;35.52;35.39;98060.09;10503923;28;20113;-73
2023/09/28 06:05:02;;;;;;;8.37;3.97;;;;;;;37.60;30.78;98063.03;10503958;28;20045;-74
2023/09/28 06:10:23;;;;;;;;;;;;;;;39.37;26.46;98070.69;10488794;28;20518;-75
2023/09/28 06:15:43;;;;;;;8.07;3.93;;;;;;;40.97;23.48;98076.50;10503525;28;19955;-76
2023/09/28 06:21:04;;;;;;;7.35;4.00;;;;;;;42.61;20.26;98072.25;10503013;28;20682;-75
2023/09/28 06:26:25;;;;;;;4.47;3.33;;;;;;;42.79;16.32;98071.19;10488416;28;20041;-76
2023/09/28 06:32:03;;;;;;;7.18;3.65;;;;;;;43.82;15.50;98066.59;10502795;28;20037;-75
2023/09/28 06:37:24;;;;;;;11.73;3.80;;;;;;;45.50;13.47;98068.88;10501472;28;20108;-75
2023/09/28 06:42:44;;;;;;;16.83;3.75;;;;;;;46.00;12.39;98078.66;10502431;28;20455;-75
2023/09/28 06:48:07;;;;;;;8.10;3.63;;;;;;;46.65;11.37;98074.00;10502422;28;20043;-75
2023/09/28 06:53:39;;;;;;;12.02;3.40;;;;;;;47.86;10.77;98074.41;10501777;28;20032;-76
2023/09/28 06:59:00;;;;;;;9.15;3.47;;;;;;;47.36;10.36;98082.72;10501351;28;20041;-75
2023/09/28 07:04:22;;;;;;;5.88;3.03;;;;;;;47.67;10.44;98089.94;10472349;28;20127;-76
2023/09/28 07:09:43;;;;;;;7.07;3.22;;;;;;;50.78;9.66;98100.88;10501779;28;20478;-76
2023/09/28 07:15:17;;;;;;;8.13;2.90;;;;;;;52.64;7.71;98100.25;10500825;28;20112;-76
2023/09/28 07:20:38;;;;;;;9.45;2.70;;;;;;;52.67;7.70;98097.75;10472060;28;20067;-76
2023/09/28 07:26:00;;;;;;;8.73;2.80;;;;;;;53.97;7.03;98104.69;10500282;28;20116;-76
2023/09/28 07:31:21;;;;;;;6.78;2.90;;;;;;;54.20;6.66;98109.00;10500202;28;20116;-76
2023/09/28 07:36:45;;;;;;;8.48;2.33;;;;;;;54.96;6.48;98098.63;10485520;28;20048;-76
2023/09/28 07:42:08;;;;;;;6.82;2.50;;;;;;;54.10;6.39;98095.16;10484658;28;20048;-76
2023/09/28 07:47:29;;;;;;;15.15;3.05;;;;;;;52.85;7.12;98098.94;10499440;28;20029;-76
2023/09/28 07:52:51;;;;;;;6.00;2.30;;;;;;;54.27;6.73;98097.78;10484129;28;20060;-77
2023/09/28 07:58:13;;;;;;;4.20;2.10;;;;;;;55.33;6.34;98101.28;10483950;28;20075;-75
2023/09/28 08:03:47;;;;;;;11.40;2.53;;;;;;;55.06;5.99;98107.19;10485886;28;20076;-76
2023/09/28 08:09:13;;;;;;;6.95;2.17;;;;;;;54.56;6.14;98099.13;10483965;28;20064;-76
2023/09/28 08:14:34;;;;;;;9.63;2.17;;;;;;;55.10;5.78;98100.75;10498513;28;20072;-75
2023/09/28 08:19:56;;;;;;;6.18;2.00;;;;;;;55.38;6.13;98105.88;10483159;28;20119;-77
2023/09/28 08:25:18;;;;;;;7.28;2.40;;;;;;;56.84;5.82;98102.06;10498287;28;20471;-76
2023/09/28 08:30:39;;;;;;;8.57;1.90;;;;;;;57.24;4.55;98097.28;10497946;28;20039;-76
2023/09/28 08:36:00;;;;;;;6.57;1.98;;;;;;;56.00;5.50;98093.75;10482997;28;20071;-77
2023/09/28 08:41:45;;;;;;;13.23;2.25;;;;;;;57.61;5.47;98092.88;10469159;28;20048;-75
2023/09/28 08:47:11;;;;;;;6.32;2.00;;;;;;;57.54;4.86;98089.25;10497539;28;20117;-76
2023/09/28 08:52:33;;;;;;;7.50;1.95;;;;;;;59.00;5.00;98101.19;10483169;28;20063;-75
2023/09/28 08:57:54;;;;;;;7.88;2.40;;;;;;;58.63;4.24;98104.41;10483244;28;20044;-76
2023/09/28 09:03:15;;;;;;;5.35;1.95;;;;;;;57.89;4.48;98104.44;10477240;28;20399;-76
2023/09/28 09:08:37;;;;;;;9.00;2.42;;;;;;;57.98;4.81;98091.44;10476884;28;20451;-76
2023/09/28 09:14:01;;;;;;;5.32;1.95;;;;;;;58.40;4.45;98100.53;10491191;28;20040;-76
2023/09/28 09:19:22;;;;;;;6.18;2.15;;;;;;;57.76;4.77;98112.84;10491064;28;20040;-77
2023/09/28 09:24:52;;;;;;;3.40;1.60;;;;;;;58.05;4.38;98110.75;10489829;28;20459;-77
2023/09/28 09:30:14;;;;;;;7.18;1.80;;;;;;;58.55;4.88;98105.41;10476183;28;20363;-76
2023/09/28 09:35:38;;;;;;;3.43;1.77;;;;;;;59.69;4.57;98102.97;10505292;28;20067;-75
2023/09/28 09:40:59;;;;;;;;;;;;;;;59.65;3.33;98094.44;10490033;28;20480;-75
2023/09/28 09:46:21;;;;;;;7.70;2.20;;;;;;;56.06;5.29;98086.38;10504175;28;19927;-76
2023/09/28 09:51:45;;;;;;;4.72;1.80;;;;;;;57.99;4.96;98086.78;10489026;28;20047;-76
2023/09/28 09:57:09;;;;;;;7.13;2.20;;;;;;;57.77;4.44;98093.91;10489609;28;20430;-76
2023/09/28 10:02:30;;;;;;;5.45;2.20;;;;;;;55.47;5.15;98090.72;10475589;28;20467;-76
2023/09/28 10:07:53;;;;;;;9.95;1.98;;;;;;;55.16;5.64;98089.72;10488524;28;20055;-75
2023/09/28 10:13:15;;;;;;;4.03;1.90;;;;;;;55.62;5.36;98090.50;10501983;28;20048;-74
2023/09/28 10:18:36;;;;;;;9.13;2.08;;;;;;;56.68;5.71;98086.72;10488126;28;20036;-76
2023/09/28 10:23:58;;;;;;;5.75;1.90;;;;;;;58.10;4.63;98090.63;10474054;28;20140;-76
2023/09/28 10:29:28;;;;;;;4.75;1.92;;;;;;;58.67;4.41;98079.81;10488090;28;20043;-76
2023/09/28 10:35:11;;;;;;;4.25;2.40;;;;;;;56.71;4.79;98084.84;10502244;28;20044;-75
2023/09/28 10:40:37;;;;;;;5.30;2.28;;;;;;;54.51;5.43;98083.22;10490153;28;20459;-76
2023/09/28 10:46:11;;;;;;;9.85;2.30;;;;;;;53.60;6.30;98081.63;10475205;28;20040;-75
2023/09/28 10:51:32;;;;;;;6.85;1.88;;;;;;;51.31;7.60;98078.16;10472958;28;20120;-76
2023/09/28 10:56:54;;;;;;;6.28;2.03;;;;;;;51.45;8.04;98074.56;10501430;28;20060;-76
2023/09/28 11:02:15;;;;;;;6.03;2.08;;;;;;;51.14;8.15;98067.78;10486506;28;20032;-76
2023/09/28 11:07:38;;;;;;;5.65;2.45;;;;;;;50.30;8.22;98065.06;10486509;28;20494;-77
2023/09/28 11:12:59;;;;;;;9.73;2.15;;;;;;;48.60;9.15;98055.13;10485940;28;20044;-76
2023/09/28 11:18:21;;;;;;;4.47;2.00;;;;;;;48.78;9.16;98052.22;10485744;28;20127;-76
2023/09/28 11:23:43;;;;;;;8.13;1.85;;;;;;;48.75;9.26;98042.13;10471783;28;20458;-75
2023/09/28 11:29:05;;;;;;;6.00;2.50;;;;;;;48.02;9.30;98057.66;10499814;28;20465;-76
2023/09/28 11:34:30;;;;;;;8.10;2.60;;;;;;;46.95;9.83;98056.25;10485398;28;20433;-76
2023/09/28 11:39:51;;;;;;;6.65;3.25;;;;;;;46.11;9.59;98035.13;10484698;28;20136;-76
2023/09/28 11:45:13;;;;;;;10.82;3.20;;;;;;;41.11;13.33;98034.78;10499322;28;20060;-74
2023/09/28 11:50:35;;;;;;;9.63;3.53;;;;;;;37.17;17.13;98038.34;10484985;28;20059;-74
2023/09/28 11:55:56;;;;;;;11.68;3.70;;;;;;;34.76;19.33;98043.19;10456962;28;20036;-75
2023/09/28 12:01:17;;;;;;;10.13;3.83;;;;;;;33.74;21.02;98040.31;10456725;28;20044;-75
2023/09/28 12:06:39;;;;;;;8.35;3.65;;;;;;;32.56;22.54;98036.63;10498304;28;20052;-75
2023/09/28 12:12:00;;;;;;;10.75;3.75;;;;;;;32.07;23.21;98034.41;10469959;28;20037;-75
2023/09/28 12:17:21;;;;;;;8.25;4.07;;;;;;;31.10;24.96;98039.09;10483332;28;20052;-75
2023/09/28 12:22:42;;;;;;;7.40;4.20;;;;;;;30.71;25.32;98033.69;10483125;28;20490;-75
2023/09/28 12:28:04;;;;;;;10.52;4.05;;;;;;;30.02;26.87;98042.00;10469421;28;20036;-75
2023/09/28 12:33:25;;;;;;;8.88;3.92;;;;;;;29.96;27.17;98042.03;10497282;28;20044;-74
2023/09/28 12:38:51;;;;;;;;;;;;;;;29.60;27.84;98029.94;10498403;28;20486;-75
2023/09/28 12:44:13;;;;;;;8.50;4.30;;;;;;;29.38;27.95;98043.66;10482791;28;19932;-72
2023/09/28 12:49:35;;;;;;;13.43;3.70;;;;;;;29.19;28.05;98048.72;10483344;28;20037;-71
2023/09/28 12:54:56;;;;;;;7.65;3.65;;;;;;;28.62;28.89;98034.38;10483351;28;20524;-72
2023/09/28 13:00:17;;;;;;;11.15;4.10;;;;;;;28.46;29.24;98032.91;10482831;28;20458;-72
2023/09/28 13:05:39;;;;;;;10.27;3.85;;;;;;;28.19;29.44;98031.44;10468500;28;20052;-70
2023/09/28 13:11:03;;;;;;;13.07;3.53;;;;;;;28.03;29.83;98026.34;10482412;28;20116;-71
2023/09/28 13:16:24;;;;;;;7.03;3.13;;;;;;;28.12;29.89;98027.09;10469384;28;20394;-71
2023/09/28 13:21:46;;;;;;;;;;;;;;;28.37;29.28;98017.09;10482640;28;20045;-71
2023/09/28 13:27:06;;;;;;;10.77;3.80;;;;;;;28.70;29.17;98023.59;10481865;28;19962;-71
2023/09/28 13:32:28;;;;;;;9.27;3.45;;;;;;;28.55;29.28;98022.16;10482489;28;20032;-71
2023/09/28 13:37:50;;;;;;;8.20;3.83;;;;;;;28.50;29.23;98014.97;10482141;28;20039;-70
2023/09/28 13:43:13;;;;;;;7.95;3.60;;;;;;;28.45;29.26;98022.88;10496255;28;20116;-71
2023/09/28 13:48:34;;;;;;;8.65;3.13;;;;;;;28.37;29.38;98016.38;10504139;28;20090;-70
2023/09/28 13:53:55;;;;;;;7.22;3.67;;;;;;;27.95;30.04;98009.84;10475417;28;20045;-70
2023/09/28 13:59:16;;;;;;;6.07;3.35;;;;;;;27.97;29.74;98011.97;10504251;28;20036;-71
2023/09/28 14:04:37;;;;;;;10.80;3.30;;;;;;;27.72;30.42;98019.81;10488074;28;20486;-71
2023/09/28 14:09:58;;;;;;;9.25;3.20;;;;;;;27.66;30.38;98017.63;10488431;28;20044;-70
2023/09/28 14:15:19;;;;;;;8.40;3.75;;;;;;;27.79;30.79;98018.38;10488715;28;20478;-69
2023/09/28 14:20:40;;;;;;;12.95;3.60;;;;;;;27.87;30.20;98009.81;10488386;28;20509;-71
2023/09/28 14:26:01;;;;;;;8.77;3.50;;;;;;;27.85;30.14;98006.94;10487896;28;20436;-71
2023/09/28 14:31:23;;;;;;;7.67;3.27;;;;;;;27.56;30.68;98008.94;10502612;28;20162;-71
2023/09/28 14:36:45;;;;;;;8.90;3.50;;;;;;;27.50;30.80;98008.19;10487603;28;20478;-71
2023/09/28 14:42:06;;;;;;;8.20;3.30;;;;;;;27.27;30.87;98005.22;10487322;28;20429;-71
2023/09/28 14:47:28;;;;;;;10.90;3.58;;;;;;;27.18;31.03;98003.75;10501909;28;20450;-71
2023/09/28 14:52:49;;;;;;;10.65;3.67;;;;;;;27.08;31.54;97995.81;10502557;28;20114;-71
2023/09/28 14:58:11;;;;;;;10.85;3.15;;;;;;;26.93;31.27;97990.69;10500909;28;20112;-71
2023/09/28 15:03:32;;;;;;;;;;;;;;;26.73;31.66;98002.69;10487441;28;20037;-71
2023/09/28 15:08:53;;;;;;;10.48;3.22;;;;;;;26.61;31.62;98008.31;10486970;28;20384;-71
2023/09/28 15:14:14;;;;;;;11.13;3.15;;;;;;;26.41;32.18;98008.88;10486131;28;20060;-71
2023/09/28 15:19:36;;;;;;;6.88;3.38;;;;;;;26.18;32.91;98011.50;10472279;28;20037;-71
2023/09/28 15:24:58;;;;;;;11.77;2.90;;;;;;;26.01;32.87;98009.16;10485898;28;20119;-71
2023/09/28 15:30:19;;;;;;;7.83;2.93;;;;;;;25.96;33.48;98002.69;10486370;28;20051;-71
2023/09/28 15:35:45;;;;;;;6.38;3.08;;;;;;;25.85;34.00;98001.13;10485839;28;20041;-71
2023/09/28 15:41:30;;;;;;;10.05;3.33;;;;;;;25.71;33.61;98006.69;10500195;28;20055;-71
2023/09/28 15:46:52;;;;;;;10.45;3.53;;;;;;;25.33;34.77;97999.06;10488012;28;20079;-71
2023/09/28 15:52:13;;;;;;;8.00;3.13;;;;;;;25.09;34.99;98000.16;10484815;28;20070;-71
2023/09/28 15:57:34;;;;;;;8.23;3.50;;;;;;;24.87;35.75;98010.50;10499492;28;20382;-71
2023/09/28 16:02:55;;;;;;;10.60;3.75;;;;;;;24.72;36.09;98016.00;10484296;28;20053;-71
2023/09/28 16:08:17;;;;;;;12.00;4.40;;;;;;;24.53;36.28;98006.41;10483970;28;20505;-72
2023/09/28 16:13:40;;;;;;;9.77;3.55;;;;;;;24.25;36.08;98012.34;10498834;28;20044;-72
2023/09/28 16:19:02;;;;;;;9.63;3.33;;;;;;;24.00;36.25;98013.28;10498746;28;20037;-71
2023/09/28 16:24:23;;;;;;;10.67;3.30;;;;;;;23.69;36.54;98012.69;10484398;28;20098;-71
2023/09/28 16:29:44;;;;;;;5.78;3.28;;;;;;;23.40;37.05;98004.94;10469477;28;20274;-70
2023/09/28 16:35:05;;;;;;;9.32;3.22;;;;;;;23.14;37.35;98019.31;10498251;28;20431;-71
2023/09/28 16:40:26;;;;;;;5.32;3.25;;;;;;;22.93;37.93;98017.44;10483575;28;20478;-71
2023/09/28 16:45:47;;;;;;;13.50;3.22;;;;;;;22.74;37.70;98016.25;10455990;28;20040;-71
2023/09/28 16:51:10;;;;;;;11.82;4.28;;;;;;;22.53;38.64;98021.44;10483357;28;20033;-70
2023/09/28 16:56:31;;;;;;;7.55;3.50;;;;;;;22.34;38.71;98030.19;10469051;28;20071;-70
2023/09/28 17:01:53;;;;;;;9.60;3.30;;;;;;;22.13;39.02;98026.09;10483163;28;20098;-71
2023/09/28 17:07:13;;;;;;;14.57;4.00;;;;;;;21.90;39.48;98025.44;10482939;28;20072;-70
2023/09/28 17:12:34;;;;;;;6.32;3.33;;;;;;;21.66;40.10;98019.84;10497781;28;20064;-71
2023/09/28 17:18:04;;;;;;;9.65;3.72;;;;;;;21.50;40.31;98024.31;10497486;28;20040;-71
2023/09/28 17:23:27;;;;;;;7.25;3.53;;;;;;;21.35;40.66;98021.06;10505676;28;20087;-70
2023/09/28 17:28:49;;;;;;;7.65;4.13;;;;;;;21.13;41.45;98023.94;10505843;28;20033;-71
2023/09/28 17:34:10;;;;;;;9.50;3.67;;;;;;;20.98;41.99;98038.34;10490208;28;20159;-71
2023/09/28 17:39:31;;;;;;;14.10;4.95;;;;;;;20.84;42.39;98032.94;10505012;28;20497;-71
2023/09/28 17:44:52;;;;;;;14.25;4.35;;;;;;;20.78;42.77;98052.63;10504572;28;20048;-72
2023/09/28 17:50:14;;;;;;;14.77;5.95;;;;;;;20.68;43.06;98058.69;10504633;28;20447;-71
2023/09/28 17:55:36;;;;;;;9.02;4.57;;;;;;;20.57;43.39;98048.41;10504380;28;20166;-70
2023/09/28 18:00:57;;;;;;;15.77;4.78;;;;;;;20.48;43.60;98060.84;10504142;28;20494;-70
2023/09/28 18:06:18;;;;;;;10.40;5.30;;;;;;;20.42;43.97;98057.78;10488862;28;20079;-71
2023/09/28 18:11:39;;;;;;;10.38;5.70;;;;;;;20.37;44.54;98064.72;10503756;28;20071;-70
2023/09/28 18:17:00;;;;;;;10.65;5.88;;;;;;;20.33;44.34;98064.56;10503547;28;20090;-71
2023/09/28 18:22:21;;;;;;;9.30;5.38;;;;;;;20.29;44.58;98080.06;10475055;28;20111;-71
2023/09/28 18:27:42;;;;;;;13.88;6.03;;;;;;;20.23;44.88;98079.81;10503093;28;20171;-71
2023/09/28 18:33:03;;;;;;;10.05;5.50;;;;;;;20.21;45.20;98093.94;10487047;28;20493;-71
2023/09/28 18:38:24;;;;;;;11.73;5.05;;;;;;;20.13;45.31;98090.81;10487894;28;20067;-71
2023/09/28 18:43:47;;;;;;;12.18;5.38;;;;;;;20.06;45.54;98091.97;10473995;28;20048;-72
2023/09/28 18:49:08;;;;;;;10.85;4.97;;;;;;;19.96;46.07;98086.66;10487678;28;20064;-72
2023/09/28 18:54:29;;;;;;;12.18;5.38;;;;;;;19.76;46.28;98097.25;10502265;28;20048;-72
2023/09/28 18:59:49;;;;;;;12.93;5.40;;;;;;;19.72;46.73;98089.34;10486913;28;20474;-72
2023/09/28 19:05:10;;;;;;;12.40;4.80;;;;;;;19.60;46.83;98094.56;10486962;28;20060;-72
2023/09/28 19:10:31;;;;;;;9.70;4.63;;;;;;;19.49;46.85;98089.13;10501597;28;20063;-71
2023/09/28 19:15:52;;;;;;;11.20;4.78;;;;;;;19.53;47.67;98101.34;10472137;28;20117;-72
2023/09/28 19:21:13;;;;;;;7.82;4.90;;;;;;;19.52;47.73;98099.88;10472378;28;20067;-71
2023/09/28 19:26:34;;;;;;;13.82;5.80;;;;;;;19.50;47.83;98099.81;10471912;28;20063;-71
2023/09/28 19:31:55;;;;;;;11.32;5.63;;;;;;;19.49;48.17;98098.34;10485704;28;20178;-72
2023/09/28 19:37:16;;;;;;;11.63;5.47;;;;;;;19.46;48.36;98096.81;10471149;28;20063;-71
2023/09/28 19:42:39;;;;;;;11.82;5.35;;;;;;;19.45;48.59;98101.03;10485006;28;20111;-71
2023/09/28 19:48:01;;;;;;;8.60;5.40;;;;;;;19.41;48.84;98100.88;10485770;28;20218;-72
2023/09/28 19:53:22;;;;;;;14.25;5.40;;;;;;;19.34;49.41;98102.00;10499703;28;20060;-72
2023/09/28 19:58:43;;;;;;;10.27;5.47;;;;;;;19.31;49.37;98092.00;10499636;28;20503;-72
2023/09/28 20:04:04;;;;;;;14.38;5.97;;;;;;;19.30;49.53;98101.84;10484484;28;20059;-72
2023/09/28 20:09:25;;;;;;;15.07;8.18;;;;;;;19.25;50.01;98089.66;10484371;28;20036;-71
2023/09/28 20:14:49;;;;;;;17.15;7.30;;;;;;;19.05;50.70;98100.91;10498809;28;20481;-72
2023/09/28 20:20:11;;;;;;;10.88;5.30;;;;;;;18.93;50.82;98097.59;10484417;28;20483;-71
2023/09/28 20:25:31;;;;;;;12.50;4.93;;;;;;;18.88;51.08;98098.78;10469819;28;20036;-71
2023/09/28 20:30:52;;;;;;;7.43;4.60;;;;;;;18.93;51.01;98096.88;10469754;28;20036;-72
2023/09/28 20:36:18;;;;;;;12.75;4.47;;;;;;;18.94;51.30;98096.22;10483630;28;20466;-71
2023/09/28 20:41:39;;;;;;;7.88;4.13;;;;;;;18.91;51.26;98105.25;10483598;28;20454;-71
2023/09/28 20:46:59;;;;;;;7.13;4.15;;;;;;;18.84;51.33;98095.81;10498455;28;20441;-71
2023/09/28 20:52:20;;;;;;;9.75;3.83;;;;;;;18.80;51.83;98092.78;10498098;28;20116;-72
2023/09/28 20:57:41;;;;;;;8.80;4.32;;;;;;;18.77;51.62;98094.09;10497401;28;20060;-70
2023/09/28 21:03:02;;;;;;;9.43;4.32;;;;;;;18.75;51.37;98089.09;10469106;28;20193;-72
2023/09/28 21:08:24;;;;;;;10.98;4.30;;;;;;;18.70;51.58;98095.94;10468883;28;20394;-70
2023/09/28 21:13:45;;;;;;;6.82;3.83;;;;;;;18.65;51.90;98094.31;10482646;28;20064;-72
2023/09/28 21:19:05;;;;;;;7.88;4.20;;;;;;;18.65;51.54;98082.28;10468511;28;20470;-72
2023/09/28 21:24:26;;;;;;;7.53;3.70;;;;;;;18.58;51.74;98089.75;10482626;28;20112;-72
2023/09/28 21:29:47;;;;;;;5.93;3.95;;;;;;;18.48;52.01;98084.41;10497754;28;20102;-72
2023/09/28 21:35:08;;;;;;;7.93;3.63;;;;;;;18.38;52.12;98088.91;10497258;28;20071;-72
2023/09/28 21:40:30;;;;;;;6.97;3.80;;;;;;;18.31;52.25;98096.38;10482534;28;20154;-71
2023/09/28 21:45:50;;;;;;;8.80;4.30;;;;;;;18.24;52.37;98089.03;10497372;28;20044;-71
2023/09/28 21:51:11;;;;;;;8.77;3.85;;;;;;;18.21;52.39;98101.59;10482128;28;20111;-70
2023/09/28 21:56:32;;;;;;;8.13;4.15;;;;;;;18.17;52.73;98092.97;10496780;28;20111;-72
2023/09/28 22:01:53;;;;;;;8.95;4.13;;;;;;;18.12;52.75;98103.34;10496862;28;20065;-72
2023/09/28 22:07:13;;;;;;;7.15;4.00;;;;;;;18.08;53.07;98099.63;10500941;28;20119;-72
2023/09/28 22:12:34;;;;;;;6.72;4.28;;;;;;;18.00;53.24;98097.19;10503941;28;20121;-73
2023/09/28 22:17:55;;;;;;;7.82;4.10;;;;;;;17.93;53.71;98104.66;10503744;28;20155;-73
2023/09/28 22:23:15;;;;;;;7.32;4.13;;;;;;;17.87;53.63;98100.84;10488570;28;20124;-73
2023/09/28 22:28:36;;;;;;;9.48;4.45;;;;;;;17.83;54.17;98107.03;10488484;28;20119;-72
2023/09/28 22:33:57;;;;;;;7.90;4.43;;;;;;;17.78;54.47;98115.97;10488085;28;20107;-73
2023/09/28 22:39:18;;;;;;;9.55;4.15;;;;;;;17.72;54.51;98116.41;10503064;28;20146;-73
2023/09/28 22:44:39;;;;;;;10.40;4.65;;;;;;;17.65;54.81;98112.53;10502654;28;20166;-72
2023/09/28 22:50:00;;;;;;;8.93;4.10;;;;;;;17.62;54.91;98113.09;10473691;28;20108;-72
2023/09/28 22:55:21;;;;;;;12.65;4.88;;;;;;;17.54;54.89;98107.78;10502875;28;20116;-72
2023/09/28 23:00:42;;;;;;;6.95;4.68;;;;;;;17.50;55.15;98115.34;10459324;28;20120;-71
2023/09/28 23:06:06;;;;;;;9.27;4.70;;;;;;;17.47;55.65;98123.00;10486894;28;20486;-72
2023/09/28 23:11:26;;;;;;;11.63;4.95;;;;;;;17.46;55.79;98130.72;10486585;28;20131;-73
2023/09/28 23:17:00;;;;;;;8.82;4.18;;;;;;;17.44;55.99;98130.63;10486359;28;20119;-73
2023/09/28 23:22:20;;;;;;;6.20;4.30;;;;;;;17.41;55.86;98137.56;10487459;28;20124;-73
2023/09/28 23:27:42;;;;;;;9.27;4.20;;;;;;;17.30;56.15;98137.72;10500951;28;20143;-72
2023/09/28 23:33:05;;;;;;;6.35;4.30;;;;;;;17.21;56.58;98133.78;10486001;28;20047;-72
2023/09/28 23:38:26;;;;;;;9.88;4.20;;;;;;;17.17;56.96;98139.22;10500332;28;20446;-73
2023/09/28 23:43:47;;;;;;;7.72;4.60;;;;;;;17.14;57.19;98129.94;10500341;28;20112;-72
2023/09/28 23:49:09;;;;;;;8.90;4.25;;;;;;;17.06;57.51;98121.06;10500492;28;20407;-72
2023/09/28 23:54:29;;;;;;;7.38;4.53;;;;;;;16.91;57.76;98133.03;10471152;28;20047;-72
2023/09/28 23:59:51;;;;;;;8.20;4.47;;;;;;;16.79;58.29;98133.19;10485017;28;20037;-70
